createdAt,value
2022-08-07T00:00:59.599Z,60.93
2022-08-07T00:04:03.397Z,60.30
2022-08-07T00:07:09.531Z,60.34
2022-08-07T00:10:26.809Z,60.49
2022-08-07T00:13:29.874Z,60.67
2022-08-07T00:16:32.363Z,60.83
2022-08-07T00:20:01.532Z,60.84
2022-08-07T00:22:57.870Z,60.67
2022-08-07T00:26:13.277Z,61.01
2022-08-07T00:29:25.909Z,60.83
2022-08-07T00:32:34.873Z,60.71
2022-08-07T00:35:37.588Z,60.59
2022-08-07T00:38:40.286Z,60.46
2022-08-07T00:41:53.483Z,60.55
2022-08-07T00:45:06.793Z,60.75
2022-08-07T00:48:11.199Z,60.77
2022-08-07T00:51:14.058Z,60.60
2022-08-07T00:54:17.873Z,60.63
2022-08-07T00:57:25.744Z,60.67
2022-08-07T01:00:28.956Z,61.08
2022-08-07T01:03:55.299Z,60.96
2022-08-07T01:06:56.868Z,61.00
2022-08-07T01:10:06.826Z,60.85
2022-08-07T01:13:16.321Z,60.73
2022-08-07T01:16:30.392Z,61.10
2022-08-07T01:19:34.317Z,60.98
2022-08-07T01:22:56.577Z,61.27
2022-08-07T01:26:05.449Z,61.13
2022-08-07T01:29:11.112Z,60.86
2022-08-07T01:32:14.590Z,60.70
2022-08-07T01:35:18.196Z,60.72
2022-08-07T01:38:29.388Z,60.77
2022-08-07T01:41:33.545Z,61.01
2022-08-07T01:44:38.300Z,61.14
2022-08-07T01:48:18.867Z,61.11
2022-08-07T01:51:58.812Z,61.64
2022-08-07T01:54:36.774Z,61.24
2022-08-07T01:58:01.551Z,61.13
2022-08-07T02:01:25.380Z,60.88
2022-08-07T02:04:55.777Z,60.92
2022-08-07T02:08:03.125Z,61.66
2022-08-07T02:11:10.460Z,61.40
2022-08-07T02:14:41.074Z,61.27
2022-08-07T02:17:49.581Z,61.76
2022-08-07T02:20:57.292Z,62.00
2022-08-07T02:24:00.369Z,61.95
2022-08-07T02:27:05.169Z,61.91
2022-08-07T02:30:09.837Z,61.75
2022-08-07T02:33:14.373Z,61.91
2022-08-07T02:36:29.409Z,61.95
2022-08-07T02:39:43.678Z,62.12
2022-08-07T02:43:07.911Z,62.13
2022-08-07T02:46:12.374Z,62.34
2022-08-07T02:49:29.169Z,62.30
2022-08-07T02:52:48.685Z,62.16
2022-08-07T02:56:04.137Z,62.33
2022-08-07T02:59:11.719Z,62.66
2022-08-07T03:02:15.039Z,62.25
2022-08-07T03:05:20.468Z,62.49
2022-08-07T03:08:26.820Z,62.34
2022-08-07T03:11:39.018Z,62.39
2022-08-07T03:14:56.396Z,62.54
2022-08-07T03:17:59.506Z,62.46
2022-08-07T03:21:05.021Z,62.42
2022-08-07T03:24:20.055Z,62.38
2022-08-07T03:28:09.140Z,62.59
2022-08-07T03:31:13.369Z,62.73
2022-08-07T03:34:22.552Z,62.06
2022-08-07T03:37:28.031Z,61.12
2022-08-07T03:40:36.946Z,60.04
2022-08-07T03:43:44.096Z,59.46
2022-08-07T03:47:14.067Z,59.44
2022-08-07T03:50:23.361Z,59.17
2022-08-07T03:54:00.573Z,59.12
2022-08-07T03:57:03.511Z,58.86
2022-08-07T04:00:07.900Z,58.45
2022-08-07T04:03:17.983Z,58.62
2022-08-07T04:06:37.973Z,58.53
2022-08-07T04:09:45.057Z,58.49
2022-08-07T04:12:50.393Z,58.45
2022-08-07T04:15:52.988Z,58.47
2022-08-07T04:18:59.822Z,58.45
2022-08-07T04:22:12.226Z,58.22
2022-08-07T04:25:18.453Z,58.47
2022-08-07T04:28:22.106Z,58.63
2022-08-07T04:31:38.751Z,58.43
2022-08-07T04:34:50.351Z,58.20
2022-08-07T04:38:03.106Z,58.41
2022-08-07T04:41:09.169Z,57.93
2022-08-07T04:44:21.225Z,58.13
2022-08-07T04:48:00.526Z,58.48
2022-08-07T04:51:12.546Z,58.20
2022-08-07T04:54:36.830Z,58.20
2022-08-07T04:58:16.379Z,58.23
2022-08-07T05:01:37.233Z,58.36
2022-08-07T05:04:58.930Z,58.73
2022-08-07T05:08:20.425Z,58.77
2022-08-07T05:11:58.079Z,58.43
2022-08-07T05:15:26.861Z,58.31
2022-08-07T05:18:32.435Z,58.25
2022-08-07T05:22:00.889Z,58.03
2022-08-07T05:25:00.733Z,58.34
2022-08-07T05:28:20.213Z,57.12
2022-08-07T05:31:34.606Z,56.96
2022-08-07T05:34:40.438Z,57.76
2022-08-07T05:37:45.735Z,57.42
2022-08-07T05:41:12.349Z,57.02
2022-08-07T05:44:29.342Z,56.70
2022-08-07T05:47:38.354Z,56.37
2022-08-07T05:50:59.511Z,56.28
2022-08-07T05:54:13.522Z,56.28
2022-08-07T05:57:30.259Z,55.88
2022-08-07T06:00:39.517Z,55.42
2022-08-07T06:03:53.916Z,55.36
2022-08-07T06:07:05.819Z,55.60
2022-08-07T06:10:15.279Z,55.50
2022-08-07T06:13:19.213Z,54.66
2022-08-07T06:16:35.242Z,54.98
2022-08-07T06:19:52.391Z,55.32
2022-08-07T06:23:45.702Z,54.75
2022-08-07T06:26:27.935Z,55.05
2022-08-07T06:29:30.951Z,54.17
2022-08-07T06:32:33.199Z,54.29
2022-08-07T06:35:45.346Z,54.31
2022-08-07T06:38:58.414Z,53.90
2022-08-07T06:42:17.758Z,53.87
2022-08-07T06:45:23.546Z,54.04
2022-08-07T06:48:26.714Z,53.69
2022-08-07T06:51:33.914Z,53.67
2022-08-07T06:55:33.826Z,52.32
2022-08-07T06:58:04.934Z,52.11
2022-08-07T07:01:14.424Z,52.32
2022-08-07T07:04:28.098Z,52.34
2022-08-07T07:07:59.815Z,52.35
2022-08-07T07:10:58.827Z,51.81
2022-08-07T07:14:03.995Z,51.61
2022-08-07T07:17:20.160Z,51.30
2022-08-07T07:20:29.569Z,51.20
2022-08-07T07:24:08.733Z,50.58
2022-08-07T07:26:59.818Z,51.36
2022-08-07T07:30:09.768Z,51.83
2022-08-07T07:33:17.384Z,51.20
2022-08-07T07:36:20.818Z,51.27
2022-08-07T07:39:26.294Z,50.58
2022-08-07T07:42:54.079Z,49.75
2022-08-07T07:46:38.220Z,50.73
2022-08-07T07:50:34.082Z,49.48
2022-08-07T07:52:49.686Z,49.50
2022-08-07T07:55:57.832Z,49.43
2022-08-07T07:59:06.066Z,48.72
2022-08-07T08:02:11.550Z,48.54
2022-08-07T08:05:51.017Z,48.96
2022-08-07T08:08:58.717Z,48.84
2022-08-07T08:12:04.967Z,48.06
2022-08-07T08:15:08.291Z,47.69
2022-08-07T08:18:17.864Z,46.80
2022-08-07T08:21:59.880Z,46.41
2022-08-07T08:25:33.024Z,46.08
2022-08-07T08:28:46.091Z,46.57
2022-08-07T08:32:16.769Z,45.65
2022-08-07T08:35:19.823Z,45.90
2022-08-07T08:38:25.861Z,46.09
2022-08-07T08:42:03.187Z,45.24
2022-08-07T08:45:22.739Z,45.40
2022-08-07T08:48:53.986Z,44.50
2022-08-07T08:52:24.369Z,44.22
2022-08-07T08:55:54.330Z,43.96
2022-08-07T08:59:16.368Z,41.57
2022-08-07T09:02:36.655Z,39.95
2022-08-07T09:06:04.060Z,39.82
2022-08-07T09:09:36.588Z,39.70
2022-08-07T09:12:53.086Z,40.15
2022-08-07T09:16:30.830Z,41.33
2022-08-07T09:19:53.438Z,41.40
2022-08-07T09:24:54.123Z,41.46
2022-08-07T09:27:09.137Z,41.11
2022-08-07T09:30:15.021Z,41.02
2022-08-07T09:33:57.165Z,40.71
2022-08-07T09:37:18.262Z,40.67
2022-08-07T09:40:35.395Z,40.04
2022-08-07T09:44:05.725Z,39.68
2022-08-07T09:47:50.936Z,38.67
2022-08-07T09:52:10.497Z,38.52
2022-08-07T09:54:48.840Z,38.46
2022-08-07T09:57:56.209Z,38.23
2022-08-07T10:01:50.403Z,38.86
2022-08-07T10:04:57.453Z,38.88
2022-08-07T10:08:35.818Z,39.21
2022-08-07T10:12:15.434Z,39.73
2022-08-07T10:15:48.522Z,39.79
2022-08-07T10:19:37.621Z,40.05
2022-08-07T10:22:59.238Z,40.44
2022-08-07T10:26:15.612Z,40.69
2022-08-07T10:30:00.749Z,40.63
2022-08-07T10:34:06.909Z,40.07
2022-08-07T10:37:21.573Z,39.10
2022-08-07T10:40:52.676Z,38.64
2022-08-07T10:44:40.075Z,38.60
2022-08-07T10:48:12.877Z,38.92
2022-08-07T10:51:57.338Z,39.29
2022-08-07T10:55:26.725Z,38.76
2022-08-07T10:58:59.440Z,38.63
2022-08-07T11:02:37.103Z,38.51
2022-08-07T11:06:02.771Z,39.03
2022-08-07T11:10:09.504Z,39.29
2022-08-07T11:13:42.374Z,39.19
2022-08-07T11:17:01.999Z,39.27
2022-08-07T11:20:22.525Z,38.77
2022-08-07T11:23:50.987Z,38.73
2022-08-07T11:27:01.978Z,39.51
2022-08-07T11:30:17.625Z,38.43
2022-08-07T11:33:59.828Z,38.03
2022-08-07T11:37:11.712Z,39.00
2022-08-07T11:40:23.188Z,38.63
2022-08-07T11:44:10.952Z,38.78
2022-08-07T11:47:23.190Z,38.46
2022-08-07T11:50:57.280Z,38.45
2022-08-07T11:54:22.134Z,37.64
2022-08-07T11:58:00.185Z,37.15
2022-08-07T12:01:12.599Z,37.04
2022-08-07T12:04:38.354Z,36.81
2022-08-07T12:08:00.587Z,36.84
2022-08-07T12:11:21.450Z,36.07
2022-08-07T12:14:29.751Z,35.78
2022-08-07T12:17:39.900Z,35.30
2022-08-07T12:22:36.211Z,35.66
2022-08-07T12:26:02.933Z,35.73
2022-08-07T12:29:17.354Z,35.67
2022-08-07T12:32:58.422Z,34.89
2022-08-07T12:36:02.507Z,35.39
2022-08-07T12:39:09.560Z,35.01
2022-08-07T12:42:33.004Z,34.96
2022-08-07T12:45:43.052Z,35.12
2022-08-07T12:48:55.230Z,34.79
2022-08-07T12:52:17.905Z,34.95
2022-08-07T12:55:41.233Z,34.69
2022-08-07T12:58:53.162Z,34.72
2022-08-07T13:02:37.268Z,34.23
2022-08-07T13:06:21.482Z,34.97
2022-08-07T13:10:37.771Z,34.83
2022-08-07T13:13:47.072Z,34.86
2022-08-07T13:16:50.916Z,34.91
2022-08-07T13:20:08.174Z,35.03
2022-08-07T13:24:01.217Z,34.16
2022-08-07T13:27:30.888Z,34.15
2022-08-07T13:30:48.728Z,34.22
2022-08-07T13:34:31.913Z,34.44
2022-08-07T13:37:32.178Z,35.00
2022-08-07T13:41:01.798Z,35.53
2022-08-07T13:44:10.454Z,35.77
2022-08-07T13:47:21.740Z,35.28
2022-08-07T13:50:32.783Z,35.43
2022-08-07T13:54:00.160Z,35.20
2022-08-07T13:57:14.477Z,35.01
2022-08-07T14:00:39.592Z,35.21
2022-08-07T14:04:07.159Z,34.70
2022-08-07T14:07:11.830Z,34.78
2022-08-07T14:10:24.838Z,34.75
2022-08-07T14:13:33.627Z,35.20
2022-08-07T14:16:42.130Z,35.31
2022-08-07T14:20:43.262Z,34.76
2022-08-07T14:24:00.170Z,35.36
2022-08-07T14:27:00.305Z,35.33
2022-08-07T14:30:11.984Z,34.99
2022-08-07T14:33:16.339Z,34.76
2022-08-07T14:36:26.651Z,34.92
2022-08-07T14:40:15.607Z,34.90
2022-08-07T14:43:57.059Z,34.83
2022-08-07T14:46:33.536Z,34.48
2022-08-07T14:49:58.480Z,34.69
2022-08-07T14:53:07.689Z,34.42
2022-08-07T14:56:13.897Z,34.33
2022-08-07T15:00:03.641Z,34.80
2022-08-07T15:02:46.667Z,34.79
2022-08-07T15:09:59.293Z,35.05
2022-08-07T15:16:14.708Z,34.50
2022-08-07T15:20:31.586Z,34.30
2022-08-07T15:22:51.553Z,34.43
2022-08-07T15:25:58.136Z,34.69
2022-08-07T15:30:09.276Z,34.36
2022-08-07T15:32:39.451Z,34.59
2022-08-07T15:36:02.142Z,34.58
2022-08-07T15:39:12.230Z,34.56
2022-08-07T15:42:47.611Z,34.49
2022-08-07T15:45:55.885Z,34.82
2022-08-07T15:49:17.830Z,34.82
2022-08-07T15:52:30.296Z,34.95
2022-08-07T15:55:54.005Z,34.96
2022-08-07T15:59:01.121Z,34.88
2022-08-07T16:02:06.773Z,34.99
2022-08-07T16:05:18.402Z,34.99
2022-08-07T16:08:33.055Z,35.39
2022-08-07T16:11:49.650Z,35.36
2022-08-07T16:15:56.339Z,35.46
2022-08-07T16:19:41.815Z,35.53
2022-08-07T16:23:13.742Z,35.76
2022-08-07T16:26:59.761Z,36.23
2022-08-07T16:30:30.903Z,36.41
2022-08-07T16:34:01.373Z,36.29
2022-08-07T16:38:03.330Z,36.82
2022-08-07T16:41:07.012Z,36.80
2022-08-07T16:44:47.339Z,37.43
2022-08-07T16:48:30.005Z,37.42
2022-08-07T16:52:11.358Z,37.66
2022-08-07T16:55:24.931Z,38.21
2022-08-07T16:59:11.429Z,38.26
2022-08-07T17:02:53.590Z,38.16
2022-08-07T17:06:28.624Z,38.97
2022-08-07T17:10:05.147Z,39.15
2022-08-07T17:13:41.326Z,38.96
2022-08-07T17:16:58.400Z,38.96
2022-08-07T17:20:14.371Z,39.05
2022-08-07T17:23:23.052Z,38.97
2022-08-07T17:26:51.393Z,38.86
2022-08-07T17:30:14.632Z,38.53
2022-08-07T17:34:08.990Z,38.09
2022-08-07T17:37:09.172Z,37.57
2022-08-07T17:40:40.799Z,37.65
2022-08-07T17:44:14.684Z,37.92
2022-08-07T17:47:42.878Z,37.57
2022-08-07T17:50:53.993Z,37.61
2022-08-07T17:54:29.668Z,37.55
2022-08-07T17:58:04.180Z,37.69
2022-08-07T18:01:21.469Z,37.71
2022-08-07T18:04:35.103Z,38.04
2022-08-07T18:07:43.922Z,38.03
2022-08-07T18:12:07.605Z,37.87
2022-08-07T18:14:37.518Z,37.93
2022-08-07T18:18:45.836Z,38.12
2022-08-07T18:21:53.498Z,38.40
2022-08-07T18:25:01.485Z,38.21
2022-08-07T18:28:34.573Z,37.93
2022-08-07T18:31:59.927Z,37.98
2022-08-07T18:35:11.449Z,37.72
2022-08-07T18:38:55.411Z,37.67
2022-08-07T18:42:04.910Z,37.97
2022-08-07T18:45:44.771Z,37.93
2022-08-07T18:50:32.315Z,37.84
2022-08-07T18:52:33.856Z,38.02
2022-08-07T18:56:19.680Z,38.02
2022-08-07T18:59:58.952Z,38.45
2022-08-07T19:03:16.102Z,38.69
2022-08-07T19:06:34.075Z,37.66
2022-08-07T19:09:55.857Z,36.64
2022-08-07T19:13:10.130Z,35.84
2022-08-07T19:17:00.329Z,35.94
2022-08-07T19:20:29.754Z,36.04
2022-08-07T19:23:58.750Z,36.11
2022-08-07T19:28:57.514Z,35.91
2022-08-07T19:31:05.415Z,36.15
2022-08-07T19:33:59.517Z,36.56
2022-08-07T19:37:10.160Z,37.01
2022-08-07T19:40:31.435Z,37.18
2022-08-07T19:43:48.913Z,37.84
2022-08-07T19:47:05.055Z,37.53
2022-08-07T19:50:41.075Z,37.50
2022-08-07T19:54:31.101Z,37.61
2022-08-07T19:58:00.892Z,38.13
2022-08-07T20:00:28.851Z,38.32
2022-08-07T20:03:36.090Z,38.61
2022-08-07T20:06:42.943Z,38.36
2022-08-07T20:10:35.180Z,39.54
2022-08-07T20:13:23.791Z,39.55
2022-08-07T20:16:36.354Z,39.29
2022-08-07T20:19:48.335Z,40.04
2022-08-07T20:23:23.399Z,39.62
2022-08-07T20:26:44.939Z,39.30
2022-08-07T20:30:00.272Z,39.45
2022-08-07T20:33:09.043Z,39.72
2022-08-07T20:36:28.327Z,39.96
2022-08-07T20:40:02.791Z,40.14
2022-08-07T20:42:59.022Z,39.84
2022-08-07T20:46:25.698Z,39.79
2022-08-07T20:49:59.230Z,40.01
2022-08-07T20:52:51.811Z,39.91
2022-08-07T20:55:57.639Z,40.44
2022-08-07T20:59:05.284Z,40.22
2022-08-07T21:02:38.312Z,40.08
2022-08-07T21:05:54.870Z,40.57
2022-08-07T21:09:13.998Z,40.52
2022-08-07T21:12:28.731Z,40.73
2022-08-07T21:15:48.100Z,40.71
2022-08-07T21:19:02.193Z,40.50
2022-08-07T21:22:07.210Z,40.23
2022-08-07T21:25:20.223Z,40.36
2022-08-07T21:28:47.985Z,40.21
2022-08-07T21:32:47.180Z,40.55
2022-08-07T21:36:04.038Z,41.16
2022-08-07T21:39:05.542Z,40.62
2022-08-07T21:42:42.518Z,40.72
2022-08-07T21:46:08.603Z,40.68
2022-08-07T21:49:40.695Z,40.67
2022-08-07T21:53:11.194Z,40.13
2022-08-07T21:56:39.710Z,40.61
2022-08-07T22:00:05.226Z,40.80
2022-08-07T22:03:17.188Z,41.00
2022-08-07T22:06:30.480Z,41.05
2022-08-07T22:09:53.669Z,41.38
2022-08-07T22:13:01.198Z,41.86
2022-08-07T22:16:38.901Z,41.80
2022-08-07T22:19:52.620Z,41.98
2022-08-07T22:23:11.550Z,42.26
2022-08-07T22:26:22.989Z,42.41
2022-08-07T22:29:47.983Z,42.58
2022-08-07T22:32:58.172Z,42.60
2022-08-07T22:36:07.359Z,42.62
2022-08-07T22:39:26.099Z,42.65
2022-08-07T22:42:33.997Z,42.81
2022-08-07T22:46:43.332Z,42.85
2022-08-07T22:49:57.334Z,42.77
2022-08-07T22:54:06.369Z,42.95
2022-08-07T22:56:58.788Z,43.09
2022-08-07T23:00:03.073Z,43.29
2022-08-07T23:03:58.989Z,43.98
2022-08-07T23:07:40.022Z,43.60
2022-08-07T23:11:28.788Z,43.98
2022-08-07T23:14:56.048Z,44.38
2022-08-07T23:18:09.163Z,44.67
2022-08-07T23:21:30.309Z,44.86
2022-08-07T23:24:45.311Z,44.76
2022-08-07T23:28:21.817Z,44.56
2022-08-07T23:32:50.264Z,45.10
2022-08-07T23:35:02.981Z,45.11
2022-08-07T23:38:19.469Z,45.58
2022-08-07T23:42:08.023Z,45.64
2022-08-07T23:46:02.452Z,45.64
2022-08-07T23:49:49.867Z,45.85
2022-08-07T23:53:06.632Z,45.98
2022-08-07T23:56:35.150Z,46.40
